Time;durP1;ratioP1;P1;durP2;ratioP2;P2;SDS_P1;SDS_P2;PMS_P1;PMS_P2;Temp;Humidity;BMP_temperature;BMP_pressure;BME280_temperature;BME280_humidity;BME280_pressure;Samples;Min_cycle;Max_cycle;Signal;HPM_P1;HPM_P2
2021/07/29 00:00:39;;;;;;;7.30;3.20;;;24.20;70.40;;;;;;5072425;28;20036;-73
2021/07/29 00:03:06;;;;;;;7.97;3.45;;;24.20;70.40;;;;;;5072336;28;20088;-73
2021/07/29 00:05:33;;;;;;;12.93;3.80;;;24.10;70.40;;;;;;5072225;28;20034;-74
2021/07/29 00:07:59;;;;;;;7.63;3.40;;;24.10;70.70;;;;;;5072210;28;20066;-74
2021/07/29 00:10:26;;;;;;;9.50;3.60;;;24.10;70.80;;;;;;5072486;28;20423;-74
2021/07/29 00:12:52;;;;;;;7.30;3.65;;;24.10;70.80;;;;;;5072268;28;20515;-74
2021/07/29 00:15:18;;;;;;;7.40;3.95;;;24.00;70.70;;;;;;5072071;28;20025;-73
2021/07/29 00:20:12;;;;;;;6.97;3.63;;;24.00;70.80;;;;;;5072230;28;20024;-74
2021/07/29 00:22:39;;;;;;;10.43;4.15;;;24.00;70.70;;;;;;5071943;28;20024;-73
2021/07/29 00:25:12;;;;;;;6.07;3.38;;;23.90;70.90;;;;;;5072028;28;20086;-74
2021/07/29 00:27:41;;;;;;;9.65;4.00;;;24.00;71.10;;;;;;5072192;28;20049;-73
2021/07/29 00:30:09;;;;;;;7.70;3.75;;;23.90;71.00;;;;;;5076068;28;20024;-73
2021/07/29 00:32:34;;;;;;;9.35;3.65;;;23.90;71.10;;;;;;5074526;28;20050;-73
2021/07/29 00:35:05;;;;;;;11.35;4.38;;;24.00;71.20;;;;;;5075669;28;20481;-73
2021/07/29 00:37:35;;;;;;;7.72;3.30;;;23.90;71.00;;;;;;5075713;28;20078;-73
2021/07/29 00:40:01;;;;;;;7.63;3.65;;;24.00;71.20;;;;;;5075848;28;20025;-73
2021/07/29 00:42:27;;;;;;;9.07;3.72;;;24.00;71.10;;;;;;5075462;28;20025;-73
2021/07/29 00:44:53;;;;;;;8.88;3.83;;;23.90;71.30;;;;;;5075195;28;20107;-73
2021/07/29 00:47:19;;;;;;;11.88;4.13;;;23.90;71.40;;;;;;5075511;28;20056;-73
2021/07/29 00:49:46;;;;;;;11.98;4.00;;;23.90;71.30;;;;;;5075352;28;20021;-74
2021/07/29 00:52:14;;;;;;;8.32;3.53;;;23.90;71.30;;;;;;5075396;28;20380;-73
2021/07/29 00:54:40;;;;;;;7.85;3.97;;;23.90;71.00;;;;;;5075122;28;20044;-73
2021/07/29 00:57:07;;;;;;;6.43;3.85;;;23.90;71.50;;;;;;5075029;28;20094;-73
2021/07/29 00:59:33;;;;;;;10.10;3.78;;;23.90;71.50;;;;;;5072124;28;20032;-73
2021/07/29 01:01:59;;;;;;;8.57;4.90;;;23.90;71.50;;;;;;5072541;28;20041;-73
2021/07/29 01:04:25;;;;;;;9.95;4.03;;;23.80;71.40;;;;;;5073170;28;20036;-73
2021/07/29 01:06:50;;;;;;;10.68;3.70;;;23.80;72.00;;;;;;5074748;28;20081;-73
2021/07/29 01:09:16;;;;;;;11.27;4.05;;;23.80;71.40;;;;;;5075089;28;20020;-73
2021/07/29 01:11:43;;;;;;;8.80;3.53;;;23.80;71.40;;;;;;5074762;28;20032;-73
2021/07/29 01:14:10;;;;;;;10.55;4.07;;;23.80;71.40;;;;;;5074464;28;20671;-73
2021/07/29 01:16:36;;;;;;;11.05;3.90;;;23.80;71.40;;;;;;5074495;28;20087;-73
2021/07/29 01:19:03;;;;;;;9.93;3.97;;;23.80;71.40;;;;;;5074894;28;20032;-73
2021/07/29 01:21:30;;;;;;;13.30;4.45;;;23.80;71.30;;;;;;5074272;28;20029;-73
2021/07/29 01:23:56;;;;;;;7.82;3.90;;;23.80;71.30;;;;;;5074549;28;20541;-74
2021/07/29 01:26:23;;;;;;;9.15;4.15;;;23.80;71.80;;;;;;5074626;28;20036;-73
2021/07/29 01:28:49;;;;;;;7.93;4.07;;;23.70;71.30;;;;;;5074650;28;20078;-73
2021/07/29 01:31:15;;;;;;;8.88;4.00;;;23.70;71.40;;;;;;5074688;28;20028;-73
2021/07/29 01:33:41;;;;;;;7.47;4.10;;;23.70;71.50;;;;;;5074642;28;20025;-73
2021/07/29 01:36:07;;;;;;;8.68;4.50;;;23.70;71.60;;;;;;5074284;28;20021;-73
2021/07/29 01:38:32;;;;;;;7.82;4.03;;;23.70;71.40;;;;;;5074315;28;20032;-73
2021/07/29 01:40:58;;;;;;;9.93;4.53;;;23.70;71.40;;;;;;5072946;28;20093;-73
2021/07/29 01:43:25;;;;;;;7.03;3.55;;;23.70;71.50;;;;;;5074406;28;20025;-73
2021/07/29 01:45:51;;;;;;;12.35;4.57;;;23.70;71.70;;;;;;5074106;28;20035;-74
2021/07/29 01:48:16;;;;;;;8.80;4.47;;;23.70;71.80;;;;;;5074332;28;20381;-73
2021/07/29 01:50:45;;;;;;;7.97;4.28;;;23.70;71.70;;;;;;5074069;28;20020;-74
2021/07/29 01:53:11;;;;;;;13.75;4.40;;;23.70;71.80;;;;;;5074203;28;20457;-74
2021/07/29 01:55:43;;;;;;;10.05;4.15;;;23.70;71.90;;;;;;5074027;28;20027;-73
2021/07/29 01:58:10;;;;;;;7.40;3.88;;;23.70;72.00;;;;;;5073936;28;20373;-74
2021/07/29 02:00:37;;;;;;;9.55;4.38;;;23.60;72.00;;;;;;5073983;28;20523;-74
2021/07/29 02:03:03;;;;;;;8.10;4.13;;;23.60;72.40;;;;;;5074144;28;20388;-73
2021/07/29 02:05:29;;;;;;;11.52;4.82;;;23.60;72.50;;;;;;5072570;28;20111;-73
2021/07/29 02:07:56;;;;;;;6.93;4.32;;;23.60;72.70;;;;;;5074240;28;20075;-73
2021/07/29 02:10:21;;;;;;;11.85;4.75;;;23.60;72.90;;;;;;5073888;28;20020;-73
2021/07/29 02:12:48;;;;;;;11.68;5.25;;;23.60;72.90;;;;;;5073851;28;20388;-74
2021/07/29 02:15:14;;;;;;;9.45;4.38;;;23.60;72.90;;;;;;5073632;28;20024;-73
2021/07/29 02:17:39;;;;;;;8.38;4.40;;;23.50;72.80;;;;;;5073638;28;20024;-73
2021/07/29 02:20:06;;;;;;;11.25;4.85;;;23.50;72.60;;;;;;5073506;28;20068;-73
2021/07/29 02:22:32;;;;;;;10.50;4.22;;;23.50;72.70;;;;;;5073661;28;20024;-73
2021/07/29 02:24:57;;;;;;;5.57;3.92;;;23.50;72.40;;;;;;5073438;28;20516;-73
2021/07/29 02:27:24;;;;;;;11.75;4.72;;;23.50;72.20;;;;;;5073403;28;20052;-73
2021/07/29 02:29:53;;;;;;;12.90;4.50;;;23.50;72.10;;;;;;5073500;28;20029;-73
2021/07/29 02:32:20;;;;;;;12.50;4.30;;;23.40;72.00;;;;;;5073680;28;20028;-73
2021/07/29 02:34:46;;;;;;;8.02;4.28;;;23.40;72.10;;;;;;5073410;28;20020;-73
2021/07/29 02:37:11;;;;;;;10.65;4.28;;;23.40;72.20;;;;;;5073422;28;20117;-73
2021/07/29 02:39:40;;;;;;;9.75;4.32;;;23.40;72.20;;;;;;5073286;28;20044;-73
2021/07/29 02:42:09;;;;;;;8.20;3.95;;;23.40;72.20;;;;;;5073119;28;20046;-73
2021/07/29 02:44:35;;;;;;;10.88;4.45;;;23.40;72.10;;;;;;5073336;28;20059;-73
2021/07/29 02:47:01;;;;;;;8.20;4.25;;;23.30;72.10;;;;;;5072881;28;20530;-73
2021/07/29 02:49:27;;;;;;;10.48;4.13;;;23.40;72.30;;;;;;5073074;28;20377;-73
2021/07/29 02:51:52;;;;;;;9.93;4.78;;;23.40;72.30;;;;;;5072979;28;20024;-73
2021/07/29 02:54:18;;;;;;;9.18;3.88;;;23.40;72.30;;;;;;5073106;28;20035;-73
2021/07/29 02:56:44;;;;;;;10.57;4.43;;;23.40;72.20;;;;;;5073579;28;20024;-73
2021/07/29 02:59:09;;;;;;;12.40;4.93;;;23.30;72.30;;;;;;5073293;28;20028;-73
2021/07/29 03:01:35;;;;;;;8.18;4.53;;;23.30;72.00;;;;;;5073217;28;20032;-73
2021/07/29 03:04:01;;;;;;;11.82;4.55;;;23.30;72.00;;;;;;5073327;28;20020;-73
2021/07/29 03:06:26;;;;;;;12.15;4.10;;;23.30;72.00;;;;;;5073408;28;20393;-73
2021/07/29 03:08:52;;;;;;;8.52;4.25;;;23.30;72.10;;;;;;5073199;28;20503;-73
2021/07/29 03:11:18;;;;;;;11.20;4.68;;;23.30;72.30;;;;;;5072831;28;20029;-73
2021/07/29 03:13:43;;;;;;;13.40;4.70;;;23.30;72.30;;;;;;5073024;28;20516;-73
2021/07/29 03:16:09;;;;;;;12.00;5.03;;;23.30;72.30;;;;;;5072944;28;20029;-73
2021/07/29 03:18:35;;;;;;;9.30;4.60;;;23.30;72.40;;;;;;5073149;28;20084;-73
2021/07/29 03:21:01;;;;;;;13.65;5.10;;;23.30;72.60;;;;;;5072852;28;20028;-74
2021/07/29 03:23:27;;;;;;;9.93;4.50;;;23.30;72.70;;;;;;5073135;28;20033;-73
2021/07/29 03:25:54;;;;;;;13.23;5.20;;;23.30;72.90;;;;;;5072941;28;20028;-73
2021/07/29 03:28:20;;;;;;;11.25;5.00;;;23.30;72.90;;;;;;5072953;28;20068;-73
2021/07/29 03:30:46;;;;;;;12.02;5.00;;;23.30;72.70;;;;;;5071625;28;20028;-73
2021/07/29 03:33:13;;;;;;;9.57;4.70;;;23.20;72.70;;;;;;5072881;28;20052;-73
2021/07/29 03:35:40;;;;;;;13.25;5.47;;;23.20;72.70;;;;;;5072860;28;20094;-73
2021/07/29 03:38:07;;;;;;;11.00;4.78;;;23.20;72.80;;;;;;5072906;28;20103;-73
2021/07/29 03:40:34;;;;;;;8.23;4.25;;;23.20;72.90;;;;;;5072570;28;20083;-73
2021/07/29 03:43:02;;;;;;;7.35;4.40;;;23.20;73.10;;;;;;5072730;28;20020;-73
2021/07/29 03:45:31;;;;;;;11.57;4.32;;;23.20;73.40;;;;;;5072728;28;20119;-74
2021/07/29 03:47:58;;;;;;;10.50;4.70;;;23.20;73.60;;;;;;5072873;28;20059;-73
2021/07/29 03:50:24;;;;;;;9.63;4.28;;;23.10;73.70;;;;;;5071184;28;20078;-73
2021/07/29 03:52:50;;;;;;;8.20;4.07;;;23.20;80.40;;;;;;5072990;28;20071;-72
2021/07/29 03:55:16;;;;;;;8.13;4.15;;;23.20;74.30;;;;;;5072650;28;20025;-73
2021/07/29 03:57:41;;;;;;;12.05;4.55;;;23.20;75.10;;;;;;5072697;28;20086;-73
2021/07/29 04:00:08;;;;;;;7.30;4.60;;;23.10;74.40;;;;;;5072791;28;20035;-73
2021/07/29 04:02:34;;;;;;;4.97;3.95;;;23.10;74.40;;;;;;5072519;28;20024;-73
2021/07/29 04:05:00;;;;;;;7.90;4.38;;;23.10;75.20;;;;;;5076401;28;20153;-73
2021/07/29 04:07:26;;;;;;;8.90;4.20;;;23.10;74.80;;;;;;5076149;28;20033;-73
2021/07/29 04:09:52;;;;;;;8.02;4.53;;;23.00;74.80;;;;;;5076243;28;20412;-73
2021/07/29 04:12:18;;;;;;;10.25;4.68;;;23.00;74.80;;;;;;5076055;28;20024;-73
2021/07/29 04:14:44;;;;;;;9.68;4.75;;;23.00;74.80;;;;;;5076304;28;20025;-73
2021/07/29 04:17:11;;;;;;;11.27;4.72;;;23.10;75.00;;;;;;5076187;28;20028;-72
2021/07/29 04:19:37;;;;;;;10.40;4.47;;;23.00;74.80;;;;;;5076133;28;20027;-73
2021/07/29 04:22:07;;;;;;;12.95;5.13;;;23.00;74.80;;;;;;5076046;28;20461;-73
2021/07/29 04:24:33;;;;;;;8.05;4.55;;;23.00;74.80;;;;;;5076107;28;20017;-73
2021/07/29 04:27:01;;;;;;;12.68;5.00;;;23.00;74.70;;;;;;5075793;28;20103;-73
2021/07/29 04:29:27;;;;;;;15.57;4.68;;;23.00;74.50;;;;;;5075546;28;20024;-73
2021/07/29 04:31:54;;;;;;;10.13;4.78;;;23.00;74.40;;;;;;5076008;28;20025;-68
2021/07/29 04:34:20;;;;;;;15.20;4.47;;;23.00;74.20;;;;;;5075576;28;20503;-70
2021/07/29 04:36:46;;;;;;;13.45;4.43;;;23.20;74.50;;;;;;5075786;28;20091;-69
2021/07/29 04:39:12;;;;;;;12.38;5.10;;;23.00;73.90;;;;;;5075490;28;20024;-69
2021/07/29 04:41:42;;;;;;;8.55;4.72;;;23.00;73.80;;;;;;5075715;28;20082;-69
2021/07/29 04:44:09;;;;;;;9.73;5.22;;;23.00;74.10;;;;;;5076102;28;20025;-69
2021/07/29 04:46:36;;;;;;;12.75;4.82;;;23.00;74.00;;;;;;5075896;28;20522;-68
2021/07/29 04:49:03;;;;;;;12.75;5.35;;;23.00;73.80;;;;;;5075381;28;20024;-69
2021/07/29 04:51:29;;;;;;;7.28;4.50;;;23.00;73.40;;;;;;5075783;28;20072;-69
2021/07/29 04:53:54;;;;;;;9.95;4.93;;;23.10;73.40;;;;;;5075717;28;20480;-68
2021/07/29 04:56:20;;;;;;;7.07;4.78;;;23.00;73.20;;;;;;5075717;28;20029;-68
2021/07/29 04:58:49;;;;;;;8.82;4.55;;;23.10;73.30;;;;;;5074756;28;20369;-69
2021/07/29 05:01:15;;;;;;;14.77;5.18;;;23.10;73.30;;;;;;5074161;28;20032;-70
2021/07/29 05:03:40;;;;;;;9.20;5.13;;;23.20;73.30;;;;;;5073861;28;20016;-70
2021/07/29 05:06:06;;;;;;;11.98;5.25;;;23.20;73.40;;;;;;5075119;28;20091;-69
2021/07/29 05:08:32;;;;;;;19.85;5.05;;;23.30;79.90;;;;;;5074634;28;20021;-70
2021/07/29 05:10:58;;;;;;;10.60;4.78;;;23.20;77.00;;;;;;5074967;28;20449;-69
2021/07/29 05:13:23;;;;;;;11.75;5.00;;;23.20;75.00;;;;;;5074886;28;20393;-69
2021/07/29 05:15:49;;;;;;;12.23;5.20;;;23.30;75.30;;;;;;5074246;28;20060;-72
2021/07/29 05:18:15;;;;;;;12.65;5.05;;;23.30;75.80;;;;;;5074972;28;20023;-69
2021/07/29 05:20:40;;;;;;;16.60;5.43;;;23.20;76.40;;;;;;5073154;28;20037;-70
2021/07/29 05:23:06;;;;;;;9.68;4.93;;;23.30;77.00;;;;;;5074717;28;20469;-70
2021/07/29 05:25:35;;;;;;;14.80;5.10;;;23.30;76.90;;;;;;5074619;28;20025;-70
2021/07/29 05:28:01;;;;;;;9.63;4.82;;;23.30;77.20;;;;;;5074783;28;20044;-69
2021/07/29 05:30:26;;;;;;;13.30;5.20;;;23.30;78.90;;;;;;5074991;28;20025;-70
2021/07/29 05:32:52;;;;;;;11.32;4.80;;;23.40;77.60;;;;;;5074467;28;20077;-69
2021/07/29 05:35:18;;;;;;;20.05;5.35;;;23.40;77.50;;;;;;5074386;28;20112;-69
2021/07/29 05:37:44;;;;;;;17.05;5.93;;;23.40;79.20;;;;;;5073991;28;20027;-70
2021/07/29 05:40:10;;;;;;;9.90;4.97;;;23.40;79.20;;;;;;5074509;28;20032;-70
2021/07/29 05:42:36;;;;;;;12.98;4.63;;;23.50;79.50;;;;;;5074338;28;20477;-69
2021/07/29 05:45:02;;;;;;;17.25;4.70;;;23.50;77.00;;;;;;5074393;28;20040;-69
2021/07/29 05:47:28;;;;;;;14.82;5.07;;;23.50;76.20;;;;;;5074532;28;20525;-71
2021/07/29 05:49:54;;;;;;;9.73;4.30;;;23.50;76.40;;;;;;5074271;28;20111;-68
2021/07/29 05:52:20;;;;;;;14.57;4.85;;;23.60;77.00;;;;;;5073926;28;20033;-68
2021/07/29 05:54:45;;;;;;;14.05;4.55;;;23.60;79.40;;;;;;5074194;28;20026;-69
2021/07/29 05:57:11;;;;;;;15.95;5.22;;;23.70;77.20;;;;;;5074126;28;20024;-69
2021/07/29 05:59:36;;;;;;;14.02;4.80;;;23.70;76.90;;;;;;5072736;28;20064;-69
2021/07/29 06:02:02;;;;;;;8.57;4.45;;;23.80;77.10;;;;;;5071086;28;20119;-69
2021/07/29 06:04:28;;;;;;;13.15;4.68;;;23.70;75.40;;;;;;5071222;28;20020;-69
2021/07/29 06:06:54;;;;;;;10.40;4.63;;;23.80;75.30;;;;;;5072516;28;20029;-70
2021/07/29 06:09:19;;;;;;;14.23;4.57;;;23.90;74.90;;;;;;5073541;28;20365;-74
2021/07/29 06:11:45;;;;;;;12.18;4.43;;;23.80;74.00;;;;;;5073764;28;20107;-73
2021/07/29 06:14:11;;;;;;;11.75;4.45;;;23.90;72.80;;;;;;5073686;28;20099;-74
2021/07/29 06:16:36;;;;;;;11.70;4.60;;;23.90;72.30;;;;;;5073463;28;20024;-75
2021/07/29 06:19:10;;;;;;;12.45;4.38;;;24.00;72.50;;;;;;5072407;28;20511;-74
2021/07/29 06:21:36;;;;;;;12.00;4.20;;;24.00;72.30;;;;;;5073432;28;20036;-73
2021/07/29 06:24:03;;;;;;;10.90;4.53;;;24.10;73.20;;;;;;5073002;28;20024;-74
2021/07/29 06:26:29;;;;;;;10.55;4.65;;;24.10;73.20;;;;;;5069898;28;20152;-75
2021/07/29 06:28:54;;;;;;;11.43;4.45;;;24.20;77.30;;;;;;5069613;28;20095;-74
2021/07/29 06:31:21;;;;;;;7.10;4.20;;;24.20;77.60;;;;;;5073379;28;20108;-73
2021/07/29 06:33:46;;;;;;;9.88;4.20;;;24.30;78.50;;;;;;5073476;28;20370;-74
2021/07/29 06:36:12;;;;;;;15.73;4.50;;;24.40;79.80;;;;;;5073577;28;20028;-77
2021/07/29 06:38:39;;;;;;;9.77;4.20;;;;;;;;;;5073989;28;20016;-74
2021/07/29 06:41:08;;;;;;;14.90;4.80;;;24.40;69.80;;;;;;5073683;28;20392;-77
2021/07/29 06:43:37;;;;;;;11.18;4.22;;;24.40;70.10;;;;;;5073936;28;20056;-75
2021/07/29 06:46:07;;;;;;;10.82;4.10;;;24.50;69.90;;;;;;5073773;28;20074;-73
2021/07/29 06:48:34;;;;;;;10.65;4.50;;;24.50;69.80;;;;;;5073450;28;20441;-73
2021/07/29 06:51:04;;;;;;;9.82;4.45;;;24.60;70.00;;;;;;5073544;28;20024;-74
2021/07/29 06:53:32;;;;;;;14.63;4.28;;;24.60;69.70;;;;;;5073452;28;20025;-74
2021/07/29 06:56:00;;;;;;;7.07;4.28;;;24.70;69.70;;;;;;5073414;28;20016;-74
2021/07/29 06:58:26;;;;;;;11.77;4.30;;;24.70;69.20;;;;;;5073157;28;20423;-74
2021/07/29 07:00:52;;;;;;;10.57;4.32;;;24.80;69.00;;;;;;5073383;28;20040;-74
2021/07/29 07:03:18;;;;;;;9.95;4.25;;;24.80;69.00;;;;;;5073335;28;20067;-74
2021/07/29 07:05:47;;;;;;;10.73;4.80;;;24.80;69.00;;;;;;5073324;28;20029;-74
2021/07/29 07:08:13;;;;;;;16.52;4.30;;;24.90;68.90;;;;;;5073300;28;20376;-74
2021/07/29 07:10:39;;;;;;;8.48;4.32;;;25.00;68.90;;;;;;5073287;28;20483;-75
2021/07/29 07:13:04;;;;;;;11.52;4.85;;;25.00;68.80;;;;;;5073326;28;20021;-74
2021/07/29 07:15:30;;;;;;;11.43;4.65;;;;;;;;;;5073162;28;20028;-74
2021/07/29 07:17:56;;;;;;;15.00;4.30;;;25.20;67.50;;;;;;5073180;28;20031;-74
2021/07/29 07:20:24;;;;;;;9.20;4.30;;;25.20;67.80;;;;;;5072954;28;20392;-74
2021/07/29 07:22:50;;;;;;;13.10;4.15;;;25.30;67.90;;;;;;5073310;28;20033;-74
2021/07/29 07:25:16;;;;;;;11.73;4.55;;;25.30;67.90;;;;;;5073015;28;20078;-74
2021/07/29 07:27:41;;;;;;;15.90;5.15;;;25.40;67.60;;;;;;5072888;28;20052;-74
2021/07/29 07:30:08;;;;;;;13.98;5.15;;;25.40;67.20;;;;;;5073035;28;20048;-74
2021/07/29 07:32:33;;;;;;;10.98;5.03;;;25.50;66.90;;;;;;5073217;28;20059;-76
2021/07/29 07:34:59;;;;;;;16.90;5.07;;;25.50;66.60;;;;;;5073000;28;20464;-75
2021/07/29 07:37:25;;;;;;;7.68;4.82;;;25.70;72.40;;;;;;5072987;28;20032;-74
2021/07/29 07:39:50;;;;;;;13.27;5.13;;;25.70;72.60;;;;;;5076918;28;20027;-74
2021/07/29 07:42:16;;;;;;;11.70;4.75;;;25.80;73.70;;;;;;5077018;28;20641;-74
2021/07/29 07:44:42;;;;;;;10.20;4.60;;;25.80;73.70;;;;;;5076782;28;20025;-74
2021/07/29 07:47:08;;;;;;;13.27;4.88;;;25.90;74.10;;;;;;5076982;28;20029;-74
2021/07/29 07:49:34;;;;;;;10.48;4.78;;;26.00;75.40;;;;;;5077045;28;20489;-75
2021/07/29 07:52:00;;;;;;;11.10;5.30;;;26.00;74.40;;;;;;5076909;28;20062;-74
2021/07/29 07:54:26;;;;;;;15.55;4.80;;;26.10;73.10;;;;;;5076742;28;20036;-75
2021/07/29 07:56:52;;;;;;;11.05;4.80;;;26.10;72.30;;;;;;5076800;28;20024;-74
2021/07/29 07:59:17;;;;;;;12.93;4.82;;;26.20;71.00;;;;;;5076717;28;20032;-74
2021/07/29 08:01:44;;;;;;;13.07;4.63;;;26.20;72.70;;;;;;5076325;28;20028;-78
2021/07/29 08:04:10;;;;;;;12.75;4.93;;;26.30;73.50;;;;;;5076639;28;20039;-75
2021/07/29 08:06:39;;;;;;;12.45;4.55;;;26.40;75.60;;;;;;5076787;28;20380;-76
2021/07/29 08:09:05;;;;;;;9.43;5.03;;;26.50;72.60;;;;;;5076457;28;20035;-74
2021/07/29 08:11:31;;;;;;;10.93;4.72;;;26.50;74.40;;;;;;5076440;28;20473;-78
2021/07/29 08:13:57;;;;;;;7.55;4.30;;;26.60;73.00;;;;;;5075984;28;20016;-74
2021/07/29 08:16:23;;;;;;;12.70;5.20;;;26.70;78.80;;;;;;5076616;28;20116;-76
2021/07/29 08:18:50;;;;;;;11.60;4.88;;;26.70;77.20;;;;;;5076441;28;20200;-75
2021/07/29 08:21:15;;;;;;;7.65;5.05;;;26.80;76.60;;;;;;5076409;28;20033;-74
2021/07/29 08:23:42;;;;;;;13.18;5.13;;;26.80;72.60;;;;;;5076149;28;20530;-74
2021/07/29 08:26:10;;;;;;;9.73;4.40;;;;;;;;;;5076072;28;20473;-74
2021/07/29 08:28:40;;;;;;;11.30;4.50;;;27.00;86.30;;;;;;5076180;28;20021;-74
2021/07/29 08:31:08;;;;;;;17.08;5.43;;;27.00;62.40;;;;;;5076233;28;21141;-74
2021/07/29 08:33:34;;;;;;;10.63;5.40;;;27.00;63.10;;;;;;5076174;28;20017;-75
2021/07/29 08:35:59;;;;;;;13.98;4.78;;;27.10;62.80;;;;;;5075910;28;20544;-74
2021/07/29 08:38:25;;;;;;;11.48;4.53;;;27.20;63.50;;;;;;5075879;28;20020;-76
2021/07/29 08:40:55;;;;;;;12.32;5.10;;;27.20;62.60;;;;;;5074780;28;20074;-74
2021/07/29 08:43:22;;;;;;;12.23;5.18;;;27.30;61.60;;;;;;5075972;28;20081;-74
2021/07/29 08:45:51;;;;;;;8.13;4.70;;;27.30;61.10;;;;;;5075741;28;20027;-74
2021/07/29 08:48:26;;;;;;;11.05;4.72;;;27.40;61.50;;;;;;5075451;28;20550;-74
2021/07/29 08:50:53;;;;;;;9.43;4.93;;;27.50;61.50;;;;;;5075666;28;20100;-75
2021/07/29 08:53:18;;;;;;;17.50;5.13;;;27.50;60.80;;;;;;5075984;28;20448;-74
2021/07/29 08:55:48;;;;;;;10.18;5.28;;;27.60;60.20;;;;;;5075528;28;20056;-75
2021/07/29 08:58:14;;;;;;;15.43;5.15;;;27.70;59.90;;;;;;5075571;28;20442;-79
2021/07/29 09:00:56;;;;;;;13.20;5.05;;;27.70;59.30;;;;;;5075317;28;20020;-78
2021/07/29 09:03:25;;;;;;;13.23;5.20;;;27.80;59.60;;;;;;5075633;28;20017;-77
2021/07/29 09:06:05;;;;;;;14.07;5.30;;;27.80;59.00;;;;;;5075406;28;20085;-75
2021/07/29 09:08:51;;;;;;;12.82;5.13;;;27.90;59.10;;;;;;5075617;28;20040;-74
2021/07/29 09:11:37;;;;;;;17.40;5.10;;;28.00;58.60;;;;;;5075353;28;20032;-75
2021/07/29 09:14:11;;;;;;;12.75;5.15;;;28.00;57.90;;;;;;5074025;28;20035;-75
2021/07/29 09:16:55;;;;;;;14.88;5.63;;;28.10;58.30;;;;;;5075295;28;20021;-74
2021/07/29 09:19:35;;;;;;;12.35;6.38;;;28.20;58.50;;;;;;5075212;28;20461;-76
2021/07/29 09:22:14;;;;;;;16.27;5.45;;;28.20;58.10;;;;;;5074911;28;20400;-74
2021/07/29 09:25:00;;;;;;;11.18;5.28;;;28.30;57.70;;;;;;5074822;28;20032;-74
2021/07/29 09:27:38;;;;;;;11.13;5.10;;;28.40;57.50;;;;;;5075089;28;20068;-75
2021/07/29 09:30:26;;;;;;;14.23;5.50;;;28.40;57.70;;;;;;5075295;28;20024;-74
2021/07/29 09:33:11;;;;;;;11.05;5.35;;;28.50;57.60;;;;;;5075024;28;20503;-74
2021/07/29 09:35:52;;;;;;;15.85;5.22;;;28.60;57.40;;;;;;5074940;28;20079;-74
2021/07/29 09:38:23;;;;;;;11.32;5.80;;;28.70;57.00;;;;;;5074688;28;20016;-75
2021/07/29 09:40:56;;;;;;;13.43;5.88;;;28.80;56.00;;;;;;5074682;28;20032;-75
2021/07/29 09:43:29;;;;;;;12.50;5.07;;;28.80;55.50;;;;;;5074673;28;20488;-74
2021/07/29 09:45:56;;;;;;;15.43;5.80;;;28.80;55.40;;;;;;5074635;28;20028;-75
2021/07/29 09:48:23;;;;;;;11.35;5.30;;;28.90;55.70;;;;;;5074641;28;20056;-74
2021/07/29 09:50:55;;;;;;;11.68;5.80;;;29.00;55.80;;;;;;5074387;28;20020;-74
2021/07/29 09:53:25;;;;;;;13.93;5.90;;;29.00;55.50;;;;;;5074603;28;20153;-75
2021/07/29 09:55:51;;;;;;;14.95;5.38;;;29.10;55.30;;;;;;5074537;28;20103;-74
2021/07/29 09:58:17;;;;;;;12.55;5.18;;;29.20;55.50;;;;;;5074327;28;20111;-74
2021/07/29 10:00:43;;;;;;;9.90;4.72;;;29.20;55.60;;;;;;5073470;28;20024;-74
2021/07/29 10:03:09;;;;;;;8.80;5.03;;;29.30;55.30;;;;;;5073999;28;20025;-74
2021/07/29 10:05:47;;;;;;;13.80;5.45;;;29.40;55.30;;;;;;5074074;28;20094;-74
2021/07/29 10:08:23;;;;;;;13.77;5.20;;;29.40;55.70;;;;;;5074322;28;20032;-74
2021/07/29 10:10:49;;;;;;;24.80;5.50;;;29.50;54.80;;;;;;5074090;28;20069;-74
2021/07/29 10:13:15;;;;;;;13.80;5.28;;;29.60;54.90;;;;;;5073888;28;20032;-75
2021/07/29 10:15:45;;;;;;;12.23;5.05;;;29.60;54.50;;;;;;5073895;28;20025;-74
2021/07/29 10:18:12;;;;;;;8.67;4.83;;;29.70;54.50;;;;;;5074002;28;20029;-74
2021/07/29 10:20:39;;;;;;;15.75;5.40;;;29.70;54.70;;;;;;5073717;28;20060;-75
2021/07/29 10:23:14;;;;;;;12.95;5.00;;;29.80;55.00;;;;;;5073836;28;20013;-75
2021/07/29 10:25:52;;;;;;;13.02;5.28;;;29.90;54.80;;;;;;5073869;28;20040;-74
2021/07/29 10:28:28;;;;;;;17.02;5.20;;;29.90;54.60;;;;;;5073545;28;20053;-75
2021/07/29 10:31:01;;;;;;;15.25;5.53;;;30.00;54.80;;;;;;5073584;28;20362;-74
2021/07/29 10:33:28;;;;;;;10.38;5.05;;;30.10;54.50;;;;;;5073629;28;20039;-75
2021/07/29 10:35:55;;;;;;;11.30;5.30;;;30.10;57.80;;;;;;5073644;28;20127;-75
2021/07/29 10:38:38;;;;;;;10.02;5.00;;;30.20;54.60;;;;;;5073516;28;20027;-75
2021/07/29 10:41:10;;;;;;;15.10;4.68;;;30.20;54.10;;;;;;5073211;28;20032;-75
2021/07/29 10:43:36;;;;;;;12.30;5.05;;;30.30;53.40;;;;;;5073586;28;20032;-74
2021/07/29 10:46:02;;;;;;;12.90;5.00;;;30.30;52.80;;;;;;5073435;28;20016;-74
2021/07/29 10:51:21;;;;;;;15.37;4.53;;;30.40;52.30;;;;;;5073266;28;20051;-75
2021/07/29 10:53:48;;;;;;;9.70;4.43;;;;;;;;;;5073309;28;20070;-75
2021/07/29 10:56:15;;;;;;;16.25;5.50;;;30.50;52.70;;;;;;5073306;28;20023;-75
2021/07/29 10:58:49;;;;;;;10.02;4.85;;;30.50;52.80;;;;;;5073374;28;20017;-75
2021/07/29 11:01:16;;;;;;;13.93;5.03;;;30.60;53.10;;;;;;5073398;28;20029;-75
2021/07/29 11:03:53;;;;;;;10.43;4.40;;;30.60;52.90;;;;;;5073117;28;20024;-75
2021/07/29 11:06:42;;;;;;;11.48;4.60;;;30.70;52.60;;;;;;5073264;28;20024;-75
2021/07/29 11:09:27;;;;;;;16.25;4.90;;;30.70;51.40;;;;;;5073123;28;20108;-76
2021/07/29 11:11:53;;;;;;;15.77;4.93;;;30.70;51.30;;;;;;5072849;28;20020;-76
2021/07/29 11:14:45;;;;;;;13.45;5.20;;;30.80;51.00;;;;;;5073186;28;20035;-75
2021/07/29 11:17:11;;;;;;;17.58;4.57;;;30.90;50.60;;;;;;5071136;28;20082;-75
2021/07/29 11:19:44;;;;;;;12.10;4.55;;;30.90;50.90;;;;;;5073477;28;20033;-74
2021/07/29 11:22:11;;;;;;;14.88;4.72;;;30.90;51.20;;;;;;5073112;28;20036;-74
2021/07/29 11:24:37;;;;;;;11.80;4.70;;;31.00;50.50;;;;;;5073245;28;20043;-75
2021/07/29 11:27:06;;;;;;;9.52;4.50;;;31.00;49.60;;;;;;5072961;28;20048;-75
2021/07/29 11:29:33;;;;;;;11.95;4.82;;;31.10;49.70;;;;;;5073154;28;20024;-75
2021/07/29 11:31:59;;;;;;;9.57;4.28;;;31.10;50.10;;;;;;5073180;28;20423;-76
2021/07/29 11:34:28;;;;;;;9.13;4.70;;;31.20;50.20;;;;;;5073014;28;20460;-76
2021/07/29 11:36:55;;;;;;;16.13;4.32;;;31.20;50.30;;;;;;5072919;28;20051;-75
2021/07/29 11:39:21;;;;;;;7.88;4.30;;;;;;;;;;5072899;28;20029;-75
2021/07/29 11:41:56;;;;;;;12.02;5.00;;;31.30;48.90;;;;;;5073015;28;20068;-75
2021/07/29 11:44:22;;;;;;;12.55;4.60;;;31.40;49.20;;;;;;5072782;28;20028;-74
2021/07/29 11:46:51;;;;;;;9.70;4.78;;;31.40;48.40;;;;;;5072800;28;20079;-74
2021/07/29 11:49:17;;;;;;;8.15;4.40;;;31.50;47.40;;;;;;5073056;28;20081;-75
2021/07/29 11:52:05;;;;;;;12.13;4.20;;;31.50;46.80;;;;;;5071553;28;20024;-78
2021/07/29 11:54:33;;;;;;;8.50;3.97;;;31.50;46.90;;;;;;5072702;28;20024;-74
2021/07/29 11:57:00;;;;;;;9.65;4.20;;;31.50;46.70;;;;;;5072731;28;20095;-74
2021/07/29 11:59:33;;;;;;;9.05;4.40;;;31.60;46.60;;;;;;5072540;28;20032;-76
2021/07/29 12:02:00;;;;;;;11.43;4.18;;;31.60;46.50;;;;;;5072771;28;20036;-75
2021/07/29 12:04:27;;;;;;;14.25;4.03;;;31.60;45.70;;;;;;5072700;28;20108;-75
2021/07/29 12:06:53;;;;;;;9.98;4.20;;;31.60;45.40;;;;;;5072572;28;20052;-76
2021/07/29 12:09:21;;;;;;;10.45;4.40;;;31.70;45.40;;;;;;5072443;28;20082;-76
2021/07/29 12:11:47;;;;;;;14.77;4.47;;;31.70;46.10;;;;;;5071353;28;20426;-76
2021/07/29 12:14:13;;;;;;;10.07;4.45;;;31.70;47.50;;;;;;5072482;28;20021;-75
2021/07/29 12:16:50;;;;;;;11.90;4.35;;;31.70;47.10;;;;;;5072690;28;20149;-75
2021/07/29 12:19:17;;;;;;;11.10;4.45;;;31.80;46.70;;;;;;5071399;28;20035;-75
2021/07/29 12:21:44;;;;;;;11.18;4.10;;;31.80;46.40;;;;;;5072327;28;20434;-75
2021/07/29 12:24:10;;;;;;;14.98;5.25;;;31.80;45.80;;;;;;5073603;28;20025;-75
2021/07/29 12:26:36;;;;;;;16.63;5.28;;;31.80;45.80;;;;;;5076108;28;20385;-76
2021/07/29 12:29:02;;;;;;;12.43;4.88;;;31.80;45.80;;;;;;5076462;28;20024;-75
2021/07/29 12:31:29;;;;;;;11.63;4.50;;;31.90;46.20;;;;;;5076072;28;20025;-77
2021/07/29 12:33:59;;;;;;;11.73;4.47;;;31.80;46.90;;;;;;5075974;28;20020;-76
2021/07/29 12:36:50;;;;;;;16.13;4.50;;;31.90;46.80;;;;;;5076003;28;20491;-75
2021/07/29 12:39:17;;;;;;;11.40;4.57;;;;;;;;;;5075816;28;20028;-75
2021/07/29 12:41:46;;;;;;;12.40;4.53;;;31.90;45.80;;;;;;5075871;28;20055;-77
2021/07/29 12:44:19;;;;;;;10.98;4.07;;;31.90;46.20;;;;;;5075798;28;20091;-75
2021/07/29 12:46:46;;;;;;;12.30;4.40;;;32.00;46.10;;;;;;5075825;28;20086;-75
2021/07/29 12:49:14;;;;;;;12.77;4.32;;;31.90;45.70;;;;;;5075963;28;20409;-76
2021/07/29 12:51:47;;;;;;;12.68;4.47;;;31.90;45.10;;;;;;5075967;28;20033;-76